createdAt,value
2022-10-05T00:00:52.192Z,1.35
2022-10-05T00:03:21.658Z,1.67
2022-10-05T00:05:49.977Z,1.58
2022-10-05T00:08:22.140Z,1.75
2022-10-05T00:10:50.265Z,1.90
2022-10-05T00:13:29.743Z,1.75
2022-10-05T00:16:13.237Z,2.13
2022-10-05T00:18:41.448Z,2.20
2022-10-05T00:21:35.595Z,1.92
2022-10-05T00:24:03.581Z,1.98
2022-10-05T00:26:34.160Z,1.92
2022-10-05T00:29:03.075Z,1.87
2022-10-05T00:31:33.257Z,1.40
2022-10-05T00:34:01.206Z,1.70
2022-10-05T00:36:29.178Z,2.40
2022-10-05T00:38:56.837Z,1.70
2022-10-05T00:41:54.582Z,1.58
2022-10-05T00:44:41.689Z,1.73
2022-10-05T00:47:09.481Z,2.22
2022-10-05T00:50:04.236Z,2.05
2022-10-05T00:52:56.834Z,1.83
2022-10-05T00:55:31.818Z,1.60
2022-10-05T00:58:13.147Z,2.13
2022-10-05T01:00:58.565Z,2.22
2022-10-05T01:03:39.218Z,2.00
2022-10-05T01:06:25.154Z,1.80
2022-10-05T01:09:22.801Z,1.90
2022-10-05T01:12:06.142Z,1.80
2022-10-05T01:14:41.344Z,2.20
2022-10-05T01:17:11.885Z,1.90
2022-10-05T01:20:04.944Z,1.60
2022-10-05T01:22:45.802Z,1.88
2022-10-05T01:25:39.081Z,1.85
2022-10-05T01:28:16.030Z,1.70
2022-10-05T01:30:57.435Z,1.52
2022-10-05T01:33:28.327Z,1.80
2022-10-05T01:36:31.451Z,1.65
2022-10-05T01:39:12.096Z,1.80
2022-10-05T01:42:11.992Z,1.53
2022-10-05T01:44:55.090Z,1.98
2022-10-05T01:47:30.864Z,2.17
2022-10-05T01:50:04.802Z,1.77
2022-10-05T01:53:03.348Z,1.85
2022-10-05T01:55:52.281Z,1.48
2022-10-05T01:58:43.362Z,1.70
2022-10-05T02:01:40.947Z,1.67
2022-10-05T02:04:35.647Z,1.45
2022-10-05T02:07:37.620Z,1.83
2022-10-05T02:10:23.142Z,1.70
2022-10-05T02:13:06.929Z,1.77
2022-10-05T02:15:44.516Z,1.70
2022-10-05T02:18:22.296Z,1.92
2022-10-05T02:20:51.217Z,1.77
2022-10-05T02:23:22.560Z,1.92
2022-10-05T02:25:52.704Z,1.70
2022-10-05T02:29:03.930Z,2.10
2022-10-05T02:31:44.422Z,1.88
2022-10-05T02:34:25.948Z,1.80
2022-10-05T02:37:18.375Z,1.73
2022-10-05T02:40:34.198Z,2.00
2022-10-05T02:43:09.489Z,2.05
2022-10-05T02:46:01.543Z,2.50
2022-10-05T02:48:57.827Z,1.70
2022-10-05T02:51:35.056Z,1.65
2022-10-05T02:54:30.206Z,1.85
2022-10-05T02:57:13.425Z,1.80
2022-10-05T02:59:58.670Z,2.10
2022-10-05T03:02:59.235Z,1.70
2022-10-05T03:05:53.610Z,2.40
2022-10-05T03:08:37.127Z,2.10
2022-10-05T03:11:49.874Z,1.92
2022-10-05T03:14:27.702Z,1.90
2022-10-05T03:17:13.961Z,1.85
2022-10-05T03:20:08.187Z,2.08
2022-10-05T03:22:51.424Z,2.17
2022-10-05T03:25:38.914Z,2.22
2022-10-05T03:28:17.889Z,1.92
2022-10-05T03:31:03.084Z,2.33
2022-10-05T03:34:11.510Z,2.30
2022-10-05T03:36:56.347Z,2.28
2022-10-05T03:39:49.634Z,2.03
2022-10-05T03:42:50.148Z,2.10
2022-10-05T03:45:27.966Z,2.10
2022-10-05T03:48:33.251Z,2.20
2022-10-05T03:51:25.222Z,2.33
2022-10-05T03:54:01.386Z,2.70
2022-10-05T03:56:55.231Z,2.35
2022-10-05T03:59:32.570Z,2.63
2022-10-05T04:02:12.981Z,2.28
2022-10-05T04:04:47.720Z,2.45
2022-10-05T04:07:42.933Z,2.70
2022-10-05T04:10:36.470Z,2.20
2022-10-05T04:13:13.111Z,1.92
2022-10-05T04:15:54.768Z,2.03
2022-10-05T04:18:27.208Z,1.92
2022-10-05T04:21:00.458Z,2.08
2022-10-05T04:23:50.225Z,2.20
2022-10-05T04:26:25.490Z,2.10
2022-10-05T04:29:11.501Z,2.10
2022-10-05T04:31:56.046Z,2.38
2022-10-05T04:34:42.291Z,2.40
2022-10-05T04:37:34.424Z,2.55
2022-10-05T04:40:19.551Z,2.53
2022-10-05T04:43:11.213Z,2.78
2022-10-05T04:45:41.882Z,2.58
2022-10-05T04:48:30.312Z,2.47
2022-10-05T04:51:13.340Z,2.22
2022-10-05T04:53:50.626Z,1.98
2022-10-05T04:56:29.403Z,2.38
2022-10-05T04:59:05.521Z,2.92
2022-10-05T05:01:42.347Z,2.20
2022-10-05T05:04:21.885Z,2.03
2022-10-05T05:07:15.646Z,2.58
2022-10-05T05:09:50.444Z,2.30
2022-10-05T05:12:30.077Z,2.08
2022-10-05T05:15:13.699Z,2.83
2022-10-05T05:18:00.510Z,2.25
2022-10-05T05:20:40.204Z,2.28
2022-10-05T05:23:23.955Z,2.88
2022-10-05T05:26:01.100Z,2.70
2022-10-05T05:28:41.189Z,2.00
2022-10-05T05:31:29.998Z,2.50
2022-10-05T05:34:22.553Z,2.28
2022-10-05T05:36:56.756Z,2.30
2022-10-05T05:39:37.965Z,2.28
2022-10-05T05:42:18.008Z,2.35
2022-10-05T05:44:55.544Z,2.65
2022-10-05T05:47:35.513Z,2.60
2022-10-05T05:50:22.538Z,2.40
2022-10-05T05:53:04.266Z,2.78
2022-10-05T05:58:38.781Z,2.20
2022-10-05T06:01:32.562Z,2.40
2022-10-05T06:04:16.357Z,2.80
2022-10-05T06:06:49.350Z,2.33
2022-10-05T06:09:42.333Z,2.67
2022-10-05T06:12:43.333Z,2.80
2022-10-05T06:15:26.577Z,2.63
2022-10-05T06:17:58.988Z,2.25
2022-10-05T06:20:36.408Z,2.60
2022-10-05T06:23:10.935Z,2.08
2022-10-05T06:26:09.769Z,2.40
2022-10-05T06:28:39.760Z,2.45
2022-10-05T06:31:19.780Z,2.30
2022-10-05T06:34:15.017Z,2.55
2022-10-05T06:36:53.466Z,2.38
2022-10-05T06:39:46.030Z,2.33
2022-10-05T06:42:38.426Z,3.08
2022-10-05T06:45:55.112Z,2.10
2022-10-05T06:48:45.909Z,2.33
2022-10-05T06:51:46.964Z,3.20
2022-10-05T06:54:46.686Z,3.00
2022-10-05T06:57:41.786Z,2.35
2022-10-05T07:00:18.032Z,2.83
2022-10-05T07:03:04.339Z,2.55
2022-10-05T07:05:52.045Z,2.67
2022-10-05T07:08:33.177Z,2.97
2022-10-05T07:11:09.792Z,2.72
2022-10-05T07:13:40.441Z,2.55
2022-10-05T07:16:33.627Z,2.78
2022-10-05T07:19:38.245Z,2.78
2022-10-05T07:22:29.325Z,2.42
2022-10-05T07:25:08.624Z,2.85
2022-10-05T07:27:41.992Z,2.63
2022-10-05T07:30:14.994Z,2.83
2022-10-05T07:33:28.867Z,2.20
2022-10-05T07:36:18.111Z,2.80
2022-10-05T07:39:10.029Z,2.33
2022-10-05T07:42:04.696Z,2.40
2022-10-05T07:44:48.465Z,2.38
2022-10-05T07:47:22.465Z,2.60
2022-10-05T07:50:02.649Z,2.38
2022-10-05T07:52:37.332Z,2.78
2022-10-05T07:55:21.189Z,2.80
2022-10-05T07:58:23.715Z,2.83
2022-10-05T08:01:20.305Z,1.98
2022-10-05T08:04:03.500Z,2.33
2022-10-05T08:06:35.017Z,2.50
2022-10-05T08:09:13.332Z,2.50
2022-10-05T08:12:14.829Z,2.05
2022-10-05T08:17:55.377Z,2.42
2022-10-05T08:20:29.197Z,2.85
2022-10-05T08:23:12.612Z,2.28
2022-10-05T08:26:06.124Z,2.55
2022-10-05T08:28:42.736Z,2.25
2022-10-05T08:31:28.007Z,3.03
2022-10-05T08:34:05.774Z,2.70
2022-10-05T08:36:54.118Z,2.40
2022-10-05T08:39:22.777Z,2.33
2022-10-05T08:41:52.680Z,2.30
2022-10-05T08:44:38.563Z,2.67
2022-10-05T08:47:24.836Z,2.33
2022-10-05T08:50:27.495Z,2.30
2022-10-05T08:53:07.744Z,1.95
2022-10-05T08:56:15.336Z,1.95
2022-10-05T09:01:35.563Z,1.67
2022-10-05T09:04:32.691Z,2.30
2022-10-05T09:07:06.726Z,2.08
2022-10-05T09:09:52.427Z,2.05
2022-10-05T09:12:31.805Z,2.10
2022-10-05T09:15:25.789Z,2.00
2022-10-05T09:18:07.406Z,1.95
2022-10-05T09:20:54.070Z,1.90
2022-10-05T09:23:34.287Z,2.15
2022-10-05T09:26:29.628Z,1.77
2022-10-05T09:29:19.560Z,2.30
2022-10-05T09:32:16.216Z,2.58
2022-10-05T09:35:24.838Z,2.30
2022-10-05T09:38:08.738Z,2.20
2022-10-05T09:41:06.317Z,2.17
2022-10-05T09:44:01.847Z,2.17
2022-10-05T09:46:42.281Z,2.72
2022-10-05T09:49:28.848Z,2.58
2022-10-05T09:52:45.707Z,2.33
2022-10-05T09:55:31.383Z,2.55
2022-10-05T09:58:16.796Z,2.95
2022-10-05T10:01:09.248Z,2.30
2022-10-05T10:04:13.599Z,2.53
2022-10-05T10:06:51.714Z,2.60
2022-10-05T10:09:29.349Z,2.50
2022-10-05T10:12:23.102Z,2.88
2022-10-05T10:15:29.171Z,2.40
2022-10-05T10:18:29.027Z,2.75
2022-10-05T10:21:03.565Z,2.97
2022-10-05T10:23:37.210Z,3.38
2022-10-05T10:26:33.278Z,2.90
2022-10-05T10:29:28.466Z,2.42
2022-10-05T10:31:59.656Z,2.20
2022-10-05T10:34:56.203Z,2.70
2022-10-05T10:37:58.788Z,2.15
2022-10-05T10:40:39.529Z,2.10
2022-10-05T10:46:34.970Z,2.63
2022-10-05T10:49:22.905Z,2.50
2022-10-05T10:51:56.228Z,2.25
2022-10-05T10:54:51.005Z,2.47
2022-10-05T10:57:40.237Z,2.22
2022-10-05T11:00:19.801Z,1.70
2022-10-05T11:02:59.888Z,2.17
2022-10-05T11:05:33.410Z,1.80
2022-10-05T11:08:17.644Z,2.20
2022-10-05T11:10:51.579Z,1.73
2022-10-05T11:13:37.141Z,1.75
2022-10-05T11:16:31.665Z,1.65
2022-10-05T11:19:17.475Z,1.90
2022-10-05T11:22:09.711Z,2.13
2022-10-05T11:24:44.365Z,1.85
2022-10-05T11:27:12.129Z,1.83
2022-10-05T11:29:42.813Z,2.13
2022-10-05T11:32:29.850Z,2.03
2022-10-05T11:34:57.898Z,1.48
2022-10-05T11:38:09.944Z,2.08
2022-10-05T11:40:43.858Z,2.20
2022-10-05T11:43:30.168Z,1.48
2022-10-05T11:46:26.628Z,2.13
2022-10-05T11:49:10.271Z,1.65
2022-10-05T11:51:48.949Z,1.70
2022-10-05T11:55:09.383Z,1.92
2022-10-05T11:57:34.233Z,1.83
2022-10-05T12:00:21.267Z,1.73
2022-10-05T12:03:04.235Z,2.10
2022-10-05T12:05:57.614Z,1.92
2022-10-05T12:08:28.589Z,1.65
2022-10-05T12:11:26.548Z,2.10
2022-10-05T12:14:02.033Z,1.80
2022-10-05T12:16:57.661Z,2.03
2022-10-05T12:19:34.130Z,2.20
2022-10-05T12:22:25.409Z,2.53
2022-10-05T12:25:27.889Z,1.75
2022-10-05T12:28:05.114Z,2.13
2022-10-05T12:31:14.861Z,1.65
2022-10-05T12:33:57.859Z,1.55
2022-10-05T12:37:05.146Z,1.85
2022-10-05T12:39:42.447Z,1.50
2022-10-05T12:42:28.880Z,1.50
2022-10-05T12:45:11.821Z,1.67
2022-10-05T12:47:54.747Z,1.45
2022-10-05T12:50:37.040Z,1.88
2022-10-05T12:53:26.069Z,1.60
2022-10-05T12:56:02.010Z,1.75
2022-10-05T12:58:44.642Z,1.45
2022-10-05T13:01:28.489Z,1.60
2022-10-05T13:04:05.287Z,1.40
2022-10-05T13:07:03.006Z,1.63
2022-10-05T13:10:12.149Z,1.40
2022-10-05T13:13:17.401Z,1.13
2022-10-05T13:16:06.883Z,1.10
2022-10-05T13:18:44.468Z,1.35
2022-10-05T13:21:32.738Z,1.33
2022-10-05T13:24:24.900Z,1.27
2022-10-05T13:26:56.415Z,1.30
2022-10-05T13:29:39.033Z,0.95
2022-10-05T13:32:19.792Z,1.40
2022-10-05T13:34:53.358Z,1.10
2022-10-05T13:37:26.996Z,1.15
2022-10-05T13:40:34.014Z,1.25
2022-10-05T13:43:17.758Z,1.60
2022-10-05T13:46:47.562Z,1.40
2022-10-05T13:49:27.193Z,0.95
2022-10-05T13:52:27.184Z,1.25
2022-10-05T13:57:46.690Z,1.20
2022-10-05T14:00:24.126Z,1.40
2022-10-05T14:02:56.766Z,1.38
2022-10-05T14:05:27.187Z,1.23
2022-10-05T14:08:04.348Z,1.10
2022-10-05T14:10:43.595Z,1.00
2022-10-05T14:13:34.838Z,1.23
2022-10-05T14:16:19.310Z,1.17
2022-10-05T14:18:57.197Z,1.08
2022-10-05T14:21:29.338Z,1.30
2022-10-05T14:24:00.515Z,0.85
2022-10-05T14:26:38.065Z,1.10
2022-10-05T14:29:15.213Z,1.10
2022-10-05T14:31:58.448Z,1.00
2022-10-05T14:34:54.892Z,1.27
2022-10-05T14:37:32.422Z,0.80
2022-10-05T14:40:21.439Z,1.13
2022-10-05T14:42:49.505Z,2.03
2022-10-05T14:45:20.509Z,1.00
2022-10-05T14:47:54.542Z,1.02
2022-10-05T14:50:29.920Z,1.17
2022-10-05T14:53:18.846Z,1.10
2022-10-05T14:55:46.906Z,1.05
2022-10-05T14:58:35.636Z,1.20
2022-10-05T15:01:14.980Z,1.50
2022-10-05T15:04:04.859Z,1.17
2022-10-05T15:06:39.584Z,0.93
2022-10-05T15:09:38.947Z,0.95
2022-10-05T15:12:06.933Z,1.08
2022-10-05T15:14:43.869Z,1.05
2022-10-05T15:17:21.218Z,0.80
2022-10-05T15:20:24.791Z,0.77
2022-10-05T15:23:29.355Z,0.93
2022-10-05T15:26:10.366Z,0.90
2022-10-05T15:28:49.583Z,1.13
2022-10-05T15:32:03.393Z,0.95
2022-10-05T15:34:50.176Z,1.08
2022-10-05T15:37:42.441Z,1.00
2022-10-05T15:40:36.836Z,1.00
2022-10-05T15:43:11.230Z,1.00
2022-10-05T15:45:43.712Z,0.90
2022-10-05T15:48:20.220Z,1.60
2022-10-05T15:50:57.409Z,0.93
2022-10-05T15:53:53.204Z,1.85
2022-10-05T15:56:23.094Z,1.40
2022-10-05T15:58:58.332Z,1.30
2022-10-05T16:01:47.706Z,1.50
2022-10-05T16:04:37.222Z,1.05
2022-10-05T16:07:26.517Z,1.13
2022-10-05T16:10:21.592Z,1.42
2022-10-05T16:13:15.488Z,1.10
2022-10-05T16:16:12.820Z,1.17
2022-10-05T16:18:56.027Z,1.13
2022-10-05T16:21:41.460Z,1.15
2022-10-05T16:24:47.468Z,1.00
2022-10-05T16:27:33.284Z,0.93
2022-10-05T16:30:03.854Z,0.90
2022-10-05T16:32:45.306Z,1.08
2022-10-05T16:35:44.611Z,0.93
2022-10-05T16:38:19.783Z,0.98
2022-10-05T16:41:02.886Z,1.00
2022-10-05T16:43:45.037Z,0.90
2022-10-05T16:46:28.192Z,1.10
2022-10-05T16:48:56.074Z,1.00
2022-10-05T16:51:53.347Z,1.20
2022-10-05T16:54:42.180Z,0.80
2022-10-05T16:57:31.669Z,0.90
2022-10-05T17:00:25.178Z,0.80
2022-10-05T17:03:10.415Z,0.93
2022-10-05T17:05:55.391Z,1.08
2022-10-05T17:08:49.904Z,1.00
2022-10-05T17:11:26.679Z,0.98
2022-10-05T17:14:01.720Z,1.05
2022-10-05T17:16:55.761Z,1.10
2022-10-05T17:19:33.277Z,1.25
2022-10-05T17:22:12.966Z,1.55
2022-10-05T17:25:13.501Z,1.30
2022-10-05T17:27:55.777Z,1.15
2022-10-05T17:30:38.178Z,1.00
2022-10-05T17:33:25.594Z,1.27
2022-10-05T17:36:08.625Z,1.10
2022-10-05T17:38:42.597Z,0.80
2022-10-05T17:41:10.822Z,0.93
2022-10-05T17:43:39.205Z,1.17
2022-10-05T17:46:11.295Z,0.80
2022-10-05T17:49:06.955Z,1.00
2022-10-05T17:51:53.293Z,0.77
2022-10-05T17:55:13.140Z,1.13
2022-10-05T17:57:42.083Z,1.02
2022-10-05T18:00:31.637Z,0.93
2022-10-05T18:02:59.553Z,1.13
2022-10-05T18:05:31.156Z,0.80
2022-10-05T18:08:16.594Z,1.20
2022-10-05T18:11:11.054Z,0.90
2022-10-05T18:13:48.050Z,0.82
2022-10-05T18:16:56.370Z,1.20
2022-10-05T18:19:24.590Z,0.80
2022-10-05T18:22:24.790Z,1.52
2022-10-05T18:24:56.319Z,1.00
2022-10-05T18:28:02.808Z,0.98
2022-10-05T18:30:54.126Z,0.82
2022-10-05T18:33:25.701Z,1.38
2022-10-05T18:36:28.035Z,1.15
2022-10-05T18:39:22.733Z,0.93
2022-10-05T18:42:11.724Z,1.20
2022-10-05T18:45:12.256Z,1.15
2022-10-05T18:48:35.654Z,1.70
2022-10-05T18:51:28.993Z,1.50
2022-10-05T18:54:09.072Z,0.90
2022-10-05T18:56:38.818Z,1.08
2022-10-05T18:59:09.758Z,1.20
2022-10-05T19:02:15.336Z,1.33
2022-10-05T19:05:48.703Z,1.17
2022-10-05T19:08:39.356Z,1.67
2022-10-05T19:11:25.460Z,1.40
2022-10-05T19:14:21.197Z,1.48
2022-10-05T19:17:26.460Z,1.33
2022-10-05T19:19:59.962Z,1.30
2022-10-05T19:22:52.949Z,1.55
2022-10-05T19:25:27.516Z,1.70
2022-10-05T19:28:13.891Z,1.35
2022-10-05T19:31:12.874Z,1.83
2022-10-05T19:33:43.652Z,1.80
2022-10-05T19:36:35.723Z,1.67
2022-10-05T19:39:16.571Z,1.45
2022-10-05T19:42:16.361Z,1.88
2022-10-05T19:45:09.502Z,1.55
2022-10-05T19:47:59.442Z,2.10
2022-10-05T19:50:28.226Z,1.83
2022-10-05T19:53:11.399Z,1.85
2022-10-05T19:55:47.312Z,2.00
2022-10-05T19:58:19.340Z,2.13
2022-10-05T20:01:08.322Z,2.00
2022-10-05T20:03:39.163Z,1.88
2022-10-05T20:06:09.199Z,2.33
2022-10-05T20:08:45.641Z,1.77
2022-10-05T20:11:21.750Z,1.90
2022-10-05T20:13:55.559Z,2.10
2022-10-05T20:19:35.320Z,1.95
2022-10-05T20:22:35.324Z,2.10
2022-10-05T20:25:06.459Z,1.88
2022-10-05T20:27:48.346Z,2.00
2022-10-05T20:30:24.886Z,1.90
2022-10-05T20:32:57.733Z,2.10
2022-10-05T20:35:29.698Z,2.15
2022-10-05T20:37:59.972Z,2.75
2022-10-05T20:40:31.408Z,2.17
2022-10-05T20:42:59.448Z,2.40
2022-10-05T20:45:27.488Z,1.90
2022-10-05T20:47:55.361Z,2.33
2022-10-05T20:50:23.077Z,2.15
2022-10-05T20:52:50.828Z,1.88
2022-10-05T20:55:18.762Z,2.30
2022-10-05T20:57:47.544Z,2.40
2022-10-05T21:00:15.525Z,2.05
2022-10-05T21:02:43.344Z,1.88
2022-10-05T21:05:13.386Z,2.20
2022-10-05T21:07:41.214Z,2.17
2022-10-05T21:10:09.303Z,2.05
2022-10-05T21:12:37.223Z,1.98
2022-10-05T21:15:05.710Z,2.80
2022-10-05T21:17:34.903Z,2.22
2022-10-05T21:20:02.626Z,2.40
2022-10-05T21:22:30.579Z,2.40
2022-10-05T21:24:58.670Z,2.08
2022-10-05T21:27:26.410Z,2.50
2022-10-05T21:29:54.329Z,2.17
2022-10-05T21:32:22.064Z,2.25
2022-10-05T21:34:50.113Z,2.22
2022-10-05T21:37:19.998Z,2.33
2022-10-05T21:39:47.881Z,2.50
2022-10-05T21:42:15.688Z,2.30
2022-10-05T21:44:43.579Z,2.45
2022-10-05T21:47:11.337Z,2.45
2022-10-05T21:49:39.040Z,2.08
2022-10-05T21:52:06.870Z,2.25
2022-10-05T21:54:35.307Z,2.20
2022-10-05T21:57:06.761Z,2.30
2022-10-05T21:59:35.072Z,2.67
2022-10-05T22:02:03.658Z,2.17
2022-10-05T22:04:31.422Z,2.00
2022-10-05T22:06:59.385Z,2.03
2022-10-05T22:09:27.529Z,2.17
2022-10-05T22:11:55.363Z,3.08
2022-10-05T22:14:23.313Z,2.10
2022-10-05T22:16:51.401Z,2.28
2022-10-05T22:19:20.302Z,2.22
2022-10-05T22:21:48.144Z,2.22
2022-10-05T22:24:16.084Z,1.85
2022-10-05T22:26:46.603Z,2.05
2022-10-05T22:29:15.907Z,2.00
2022-10-05T22:31:45.108Z,1.90
2022-10-05T22:34:13.902Z,1.90
2022-10-05T22:36:42.198Z,1.88
2022-10-05T22:39:10.351Z,2.00
2022-10-05T22:41:38.333Z,2.00
2022-10-05T22:44:06.979Z,1.50
2022-10-05T22:46:35.509Z,1.90
2022-10-05T22:49:03.528Z,1.65
2022-10-05T22:51:31.201Z,2.40
2022-10-05T22:53:58.915Z,1.70
2022-10-05T22:56:26.855Z,1.75
2022-10-05T22:58:54.896Z,1.85
2022-10-05T23:01:23.043Z,1.80
2022-10-05T23:03:50.869Z,1.65
2022-10-05T23:06:20.834Z,1.90
2022-10-05T23:08:48.860Z,1.92
2022-10-05T23:11:23.967Z,2.10
2022-10-05T23:13:52.759Z,1.67
2022-10-05T23:16:23.069Z,1.58
2022-10-05T23:18:52.328Z,1.90
2022-10-05T23:21:21.966Z,1.60
2022-10-05T23:23:52.930Z,1.42
2022-10-05T23:26:23.429Z,1.70
2022-10-05T23:28:51.391Z,1.77
2022-10-05T23:31:27.328Z,1.42
2022-10-05T23:33:55.529Z,1.73
2022-10-05T23:36:25.391Z,1.33
2022-10-05T23:38:53.552Z,1.38
2022-10-05T23:41:21.628Z,1.83
2022-10-05T23:43:49.932Z,1.30
2022-10-05T23:46:18.175Z,1.90
2022-10-05T23:48:46.054Z,1.60
2022-10-05T23:51:15.811Z,1.63
2022-10-05T23:53:43.986Z,1.40
2022-10-05T23:56:12.275Z,1.55
2022-10-05T23:58:41.129Z,1.98
